Time;durP1;ratioP1;P1;durP2;ratioP2;P2;SDS_P1;SDS_P2;PMS_P1;PMS_P2;Temp;Humidity;BMP_temperature;BMP_pressure;BME280_temperature;BME280_humidity;BME280_pressure;Samples;Min_cycle;Max_cycle;Signal;HPM_P1;HPM_P2
2023/08/19 00:01:32;;;;;;;6.03;4.63;;;21.90;99.90;;;;;;5033810;28;20029;-66
2023/08/19 00:03:59;;;;;;;6.82;5.32;;;21.80;99.90;;;;;;5033731;28;20436;-66
2023/08/19 00:06:35;;;;;;;4.78;4.38;;;21.80;99.90;;;;;;5026189;28;20029;-66
2023/08/19 00:09:03;;;;;;;5.10;4.63;;;21.80;99.90;;;;;;5030892;28;20026;-66
2023/08/19 00:11:30;;;;;;;5.60;5.00;;;21.80;99.90;;;;;;5026481;28;20037;-66
2023/08/19 00:13:56;;;;;;;5.40;4.90;;;21.70;99.90;;;;;;5033987;28;20029;-66
2023/08/19 00:16:22;;;;;;;7.68;4.68;;;21.80;99.90;;;;;;5028059;28;20037;-66
2023/08/19 00:18:48;;;;;;;5.32;4.40;;;21.80;99.90;;;;;;5032607;28;20504;-66
2023/08/19 00:21:14;;;;;;;5.57;5.15;;;21.80;99.90;;;;;;5017524;28;20477;-66
2023/08/19 00:23:39;;;;;;;5.55;4.90;;;21.80;99.90;;;;;;5034651;28;20032;-66
2023/08/19 00:26:05;;;;;;;5.70;5.07;;;21.80;99.90;;;;;;5032052;28;20047;-66
2023/08/19 00:28:31;;;;;;;5.38;4.97;;;21.80;99.90;;;;;;5031349;28;20051;-66
2023/08/19 00:30:56;;;;;;;5.85;5.15;;;21.90;99.90;;;;;;5027909;28;20116;-66
2023/08/19 00:33:23;;;;;;;6.78;5.50;;;21.90;99.90;;;;;;5030802;28;20131;-64
2023/08/19 00:35:51;;;;;;;5.45;4.95;;;21.90;99.90;;;;;;5026083;28;20036;-67
2023/08/19 00:38:17;;;;;;;7.07;4.97;;;22.00;99.90;;;;;;5036994;28;20048;-67
2023/08/19 00:40:43;;;;;;;5.30;4.90;;;22.00;99.90;;;;;;5029081;28;20040;-66
2023/08/19 00:43:09;;;;;;;6.75;5.07;;;22.00;99.90;;;;;;5030685;28;20033;-66
2023/08/19 00:45:40;;;;;;;6.03;5.05;;;21.90;99.90;;;;;;5029665;28;20029;-66
2023/08/19 00:48:06;;;;;;;5.32;4.85;;;21.80;99.90;;;;;;5030785;28;20790;-66
2023/08/19 00:50:32;;;;;;;5.10;4.70;;;21.70;99.90;;;;;;5023986;28;20021;-66
2023/08/19 00:52:58;;;;;;;5.97;5.38;;;21.70;99.90;;;;;;5030533;28;20559;-66
2023/08/19 00:55:24;;;;;;;8.63;4.93;;;21.70;99.90;;;;;;5029736;28;20036;-66
2023/08/19 00:57:50;;;;;;;5.32;4.93;;;21.60;99.90;;;;;;5026386;28;20055;-66
2023/08/19 01:00:16;;;;;;;5.75;5.25;;;21.70;99.90;;;;;;5027636;28;20044;-67
2023/08/19 01:02:42;;;;;;;5.63;5.13;;;21.60;99.90;;;;;;5033755;28;20465;-66
2023/08/19 01:05:08;;;;;;;5.43;4.93;;;21.60;99.90;;;;;;5028943;28;20562;-66
2023/08/19 01:07:38;;;;;;;5.40;4.88;;;21.60;99.90;;;;;;5026573;28;20090;-66
2023/08/19 01:10:09;;;;;;;5.80;5.22;;;21.60;99.90;;;;;;5024045;28;20035;-66
2023/08/19 01:13:03;;;;;;;6.93;5.68;;;21.60;99.90;;;;;;5035270;28;20024;-66
2023/08/19 01:15:34;;;;;;;5.40;4.90;;;21.60;99.90;;;;;;5022238;28;20049;-66
2023/08/19 01:18:03;;;;;;;6.72;4.50;;;21.50;99.90;;;;;;5027051;28;20032;-66
2023/08/19 01:20:31;;;;;;;5.60;5.10;;;21.50;99.90;;;;;;5022051;28;20047;-66
2023/08/19 01:23:05;;;;;;;5.20;4.70;;;21.60;99.90;;;;;;5031371;28;20044;-73
2023/08/19 01:25:32;;;;;;;4.50;4.05;;;21.50;99.90;;;;;;5016619;28;20119;-73
2023/08/19 01:28:02;;;;;;;6.63;4.35;;;21.50;99.90;;;;;;5031860;28;20083;-74
2023/08/19 01:30:30;;;;;;;5.38;4.30;;;21.50;99.90;;;;;;5025278;28;20026;-73
2023/08/19 01:32:56;;;;;;;4.75;4.35;;;21.50;99.90;;;;;;5028476;28;20043;-73
2023/08/19 01:35:41;;;;;;;5.13;4.63;;;21.50;99.90;;;;;;5031306;28;20029;-74
2023/08/19 01:38:17;;;;;;;4.68;4.28;;;21.40;99.90;;;;;;5034090;28;20453;-66
2023/08/19 01:40:43;;;;;;;4.82;4.43;;;21.40;99.90;;;;;;5025059;28;20481;-66
2023/08/19 01:43:11;;;;;;;5.38;4.47;;;21.40;99.90;;;;;;5010588;28;20043;-66
2023/08/19 01:45:38;;;;;;;5.57;4.75;;;21.40;99.90;;;;;;5030649;28;20406;-66
2023/08/19 01:48:04;;;;;;;5.05;4.40;;;21.40;99.90;;;;;;5035792;28;20063;-66
2023/08/19 01:50:30;;;;;;;5.47;4.50;;;21.40;99.90;;;;;;5032830;28;20032;-66
2023/08/19 01:52:56;;;;;;;5.40;4.25;;;21.40;99.90;;;;;;5029723;28;20048;-66
2023/08/19 01:55:22;;;;;;;4.88;4.43;;;21.40;99.90;;;;;;5025442;28;20226;-66
2023/08/19 01:57:47;;;;;;;4.47;4.13;;;21.40;99.90;;;;;;5031248;28;20150;-66
2023/08/19 02:00:13;;;;;;;5.43;4.15;;;21.50;99.90;;;;;;5033659;28;20646;-66
2023/08/19 02:02:39;;;;;;;4.97;4.22;;;21.40;99.90;;;;;;5023336;28;20120;-66
2023/08/19 02:05:05;;;;;;;4.97;4.18;;;21.50;99.90;;;;;;5032592;28;20481;-66
2023/08/19 02:07:31;;;;;;;4.07;3.65;;;21.50;99.90;;;;;;5033401;28;20099;-66
2023/08/19 02:09:57;;;;;;;4.97;3.70;;;21.50;99.90;;;;;;5033287;28;20625;-66
2023/08/19 02:12:22;;;;;;;6.53;4.20;;;21.50;99.90;;;;;;5038374;28;20039;-66
2023/08/19 02:14:48;;;;;;;3.88;3.58;;;21.50;99.90;;;;;;5039585;28;20025;-73
2023/08/19 02:17:14;;;;;;;4.07;3.67;;;21.50;99.90;;;;;;5034572;28;20109;-73
2023/08/19 02:19:39;;;;;;;4.50;4.10;;;21.40;99.90;;;;;;5018014;28;20494;-73
2023/08/19 02:22:06;;;;;;;5.90;3.65;;;21.40;99.90;;;;;;5032078;28;20056;-73
2023/08/19 02:24:31;;;;;;;3.90;3.60;;;21.40;99.90;;;;;;5031694;28;20414;-73
2023/08/19 02:26:57;;;;;;;3.80;3.50;;;21.40;99.90;;;;;;5032311;28;20040;-73
2023/08/19 02:29:22;;;;;;;4.22;3.85;;;21.40;99.90;;;;;;5034105;28;20394;-73
2023/08/19 02:31:48;;;;;;;4.35;3.95;;;21.40;99.90;;;;;;5028736;28;20689;-73
2023/08/19 02:34:13;;;;;;;4.10;3.75;;;21.40;99.90;;;;;;5036999;28;20958;-72
2023/08/19 02:36:39;;;;;;;4.70;3.83;;;21.40;99.90;;;;;;5038419;28;20798;-72
2023/08/19 02:39:05;;;;;;;5.70;3.88;;;21.40;99.90;;;;;;5031844;28;20037;-72
2023/08/19 02:41:30;;;;;;;4.32;3.92;;;21.40;99.90;;;;;;5026126;28;20448;-72
2023/08/19 02:43:56;;;;;;;6.47;4.05;;;21.40;99.90;;;;;;5032549;28;20129;-73
2023/08/19 02:46:22;;;;;;;4.00;3.70;;;21.40;99.90;;;;;;5034205;28;20108;-73
2023/08/19 02:48:47;;;;;;;4.63;3.33;;;21.40;99.90;;;;;;5030131;28;20498;-73
2023/08/19 02:51:13;;;;;;;6.03;4.03;;;21.40;99.90;;;;;;5035829;28;20473;-67
2023/08/19 02:53:39;;;;;;;4.38;3.05;;;21.30;99.90;;;;;;5028952;28;20458;-66
2023/08/19 02:56:06;;;;;;;4.07;3.65;;;21.20;99.90;;;;;;5029204;28;20044;-66
2023/08/19 02:58:32;;;;;;;6.13;3.60;;;21.20;99.90;;;;;;5038005;28;20039;-66
2023/08/19 03:00:57;;;;;;;5.45;3.38;;;21.10;99.90;;;;;;5033353;28;20028;-67
2023/08/19 03:03:23;;;;;;;5.40;3.80;;;21.10;99.90;;;;;;5030923;28;20118;-66
2023/08/19 03:05:48;;;;;;;4.03;3.50;;;21.10;99.90;;;;;;5030586;28;20401;-66
2023/08/19 03:08:14;;;;;;;4.22;3.67;;;21.10;99.90;;;;;;5030452;28;20041;-66
2023/08/19 03:10:40;;;;;;;5.22;3.20;;;21.00;99.90;;;;;;5027568;28;20119;-66
2023/08/19 03:13:07;;;;;;;4.65;3.53;;;21.10;99.90;;;;;;5025859;28;20067;-66
2023/08/19 03:15:35;;;;;;;3.90;3.47;;;21.00;99.90;;;;;;5032077;28;20096;-66
2023/08/19 03:18:01;;;;;;;5.20;3.45;;;21.00;99.90;;;;;;5030785;28;20398;-67
2023/08/19 03:20:27;;;;;;;5.20;3.40;;;21.00;99.90;;;;;;5034100;28;20039;-66
2023/08/19 03:22:53;;;;;;;5.40;3.63;;;21.10;99.90;;;;;;5029258;28;20156;-67
2023/08/19 03:25:18;;;;;;;4.63;3.47;;;21.00;99.90;;;;;;5032464;28;20044;-66
2023/08/19 03:27:44;;;;;;;4.13;3.13;;;21.00;99.90;;;;;;5029448;28;20024;-66
2023/08/19 03:30:10;;;;;;;6.22;4.03;;;21.00;99.90;;;;;;5030024;28;20067;-66
2023/08/19 03:32:35;;;;;;;4.28;3.10;;;20.90;99.90;;;;;;5029612;28;20465;-66
2023/08/19 03:35:01;;;;;;;4.57;3.45;;;20.90;99.90;;;;;;5034608;28;20025;-66
2023/08/19 03:37:27;;;;;;;3.65;3.35;;;20.90;99.90;;;;;;5031854;28;20122;-66
2023/08/19 03:39:52;;;;;;;3.65;3.35;;;20.80;99.90;;;;;;5027830;28;20033;-66
2023/08/19 03:42:18;;;;;;;3.25;3.03;;;20.80;99.90;;;;;;5028043;28;20448;-66
2023/08/19 03:44:44;;;;;;;5.10;3.60;;;20.80;99.90;;;;;;5035196;28;20021;-66
2023/08/19 03:47:13;;;;;;;3.85;3.20;;;20.80;99.90;;;;;;5031436;28;20067;-66
2023/08/19 03:49:39;;;;;;;4.05;3.05;;;20.80;99.90;;;;;;5033048;28;20036;-66
2023/08/19 03:52:06;;;;;;;3.55;3.25;;;20.70;99.90;;;;;;5032465;28;20107;-66
2023/08/19 03:54:32;;;;;;;5.03;3.40;;;20.70;99.90;;;;;;5038256;28;20025;-66
2023/08/19 03:56:58;;;;;;;5.63;3.10;;;20.70;99.90;;;;;;5031658;28;20032;-66
2023/08/19 03:59:23;;;;;;;4.47;3.03;;;20.70;99.90;;;;;;5013943;28;20054;-66
2023/08/19 04:01:49;;;;;;;4.40;3.15;;;20.70;99.90;;;;;;5010308;28;20041;-66
2023/08/19 04:04:15;;;;;;;3.40;3.10;;;20.70;99.90;;;;;;5010856;28;20034;-66
2023/08/19 04:06:40;;;;;;;4.47;3.28;;;20.70;99.90;;;;;;5012700;28;21342;-66
2023/08/19 04:09:07;;;;;;;3.85;3.45;;;20.70;99.90;;;;;;5002885;28;20044;-66
2023/08/19 04:11:32;;;;;;;3.83;3.42;;;20.70;99.90;;;;;;5006477;28;20034;-66
2023/08/19 04:13:58;;;;;;;3.05;2.85;;;20.70;99.90;;;;;;5011097;28;20033;-66
2023/08/19 04:16:24;;;;;;;2.90;2.70;;;20.70;99.90;;;;;;5005087;28;20095;-66
2023/08/19 04:18:51;;;;;;;3.72;3.33;;;20.80;99.90;;;;;;5002400;28;20037;-66
2023/08/19 04:21:17;;;;;;;4.03;3.38;;;20.70;99.90;;;;;;5006918;28;20985;-66
2023/08/19 04:23:43;;;;;;;6.30;3.38;;;20.70;99.90;;;;;;5001665;28;20025;-66
2023/08/19 04:26:09;;;;;;;3.95;3.30;;;20.70;99.90;;;;;;5005668;28;20030;-66
2023/08/19 04:28:35;;;;;;;3.10;2.90;;;20.70;99.90;;;;;;5008515;28;20033;-66
2023/08/19 04:31:02;;;;;;;4.25;3.42;;;20.80;99.90;;;;;;5003547;28;20952;-66
2023/08/19 04:33:27;;;;;;;3.92;3.40;;;20.80;99.90;;;;;;4995542;28;20025;-66
2023/08/19 04:35:53;;;;;;;5.13;3.53;;;20.90;99.90;;;;;;4995882;28;20361;-66
2023/08/19 04:38:18;;;;;;;3.72;3.38;;;21.00;99.90;;;;;;4994916;28;20529;-66
2023/08/19 04:40:46;;;;;;;4.97;3.10;;;21.10;99.90;;;;;;5006916;28;20528;-66
2023/08/19 04:43:11;;;;;;;4.15;3.67;;;21.10;99.90;;;;;;5006072;28;20120;-66
2023/08/19 04:45:38;;;;;;;6.35;3.60;;;21.20;99.90;;;;;;5004010;28;20033;-66
2023/08/19 04:48:07;;;;;;;4.90;3.08;;;21.20;99.90;;;;;;5012454;28;20033;-66
2023/08/19 04:50:32;;;;;;;3.78;3.35;;;21.30;99.90;;;;;;5008374;28;20029;-66
2023/08/19 04:52:59;;;;;;;5.82;3.25;;;21.30;99.90;;;;;;5014024;28;20052;-66
2023/08/19 04:55:26;;;;;;;3.78;3.47;;;21.40;99.90;;;;;;5007343;28;20112;-66
2023/08/19 04:57:51;;;;;;;4.50;3.55;;;21.40;99.90;;;;;;4998465;28;20053;-66
2023/08/19 05:00:17;;;;;;;3.30;3.00;;;21.40;99.90;;;;;;5023465;28;20165;-65
2023/08/19 05:02:43;;;;;;;6.35;3.38;;;21.50;99.90;;;;;;5026052;28;20124;-66
2023/08/19 05:05:08;;;;;;;7.35;3.75;;;21.50;99.90;;;;;;5032799;28;20039;-66
2023/08/19 05:07:34;;;;;;;4.05;3.33;;;21.60;99.90;;;;;;5028350;28;20037;-65
2023/08/19 05:10:00;;;;;;;3.63;3.33;;;21.70;99.90;;;;;;5029269;28;20041;-66
2023/08/19 05:12:25;;;;;;;4.38;3.45;;;21.70;99.90;;;;;;5026243;28;20239;-66
2023/08/19 05:14:52;;;;;;;5.47;3.17;;;21.80;99.90;;;;;;5018392;28;21764;-66
2023/08/19 05:17:18;;;;;;;8.88;3.67;;;21.80;99.90;;;;;;5026181;28;20082;-66
2023/08/19 05:19:44;;;;;;;15.25;4.10;;;21.90;99.90;;;;;;5033314;28;20029;-65
2023/08/19 05:22:10;;;;;;;4.82;3.38;;;22.00;99.90;;;;;;5027984;28;20393;-66
2023/08/19 05:24:36;;;;;;;5.88;3.40;;;22.10;99.90;;;;;;5030630;28;20037;-65
2023/08/19 05:27:01;;;;;;;3.88;3.47;;;22.20;99.90;;;;;;5026863;28;20041;-66
2023/08/19 05:29:27;;;;;;;3.88;3.30;;;22.30;99.90;;;;;;5028733;28;20494;-66
2023/08/19 05:31:53;;;;;;;3.72;3.42;;;22.40;99.90;;;;;;5030240;28;20033;-66
2023/08/19 05:34:19;;;;;;;3.60;3.30;;;22.50;99.90;;;;;;5026308;28;20033;-65
2023/08/19 05:36:44;;;;;;;3.60;3.30;;;22.60;99.90;;;;;;5015942;28;20032;-66
2023/08/19 05:39:10;;;;;;;3.97;3.63;;;22.70;99.90;;;;;;5029037;28;20045;-66
2023/08/19 05:41:36;;;;;;;3.17;2.97;;;22.80;99.90;;;;;;5031673;28;20037;-66
2023/08/19 05:44:02;;;;;;;6.57;3.83;;;22.90;99.90;;;;;;5033124;28;20603;-66
2023/08/19 05:46:28;;;;;;;3.90;3.58;;;22.90;99.90;;;;;;5036795;28;20025;-65
2023/08/19 05:48:54;;;;;;;4.13;3.65;;;23.00;99.90;;;;;;5035794;28;20369;-66
2023/08/19 05:51:20;;;;;;;3.70;3.40;;;23.10;99.90;;;;;;5028222;28;20068;-66
2023/08/19 05:53:46;;;;;;;4.05;3.20;;;23.10;99.90;;;;;;5018945;28;20038;-66
2023/08/19 05:56:11;;;;;;;4.97;3.63;;;23.20;99.90;;;;;;5034144;28;20036;-72
2023/08/19 05:58:38;;;;;;;3.83;3.53;;;23.30;99.90;;;;;;5032106;28;20831;-72
2023/08/19 06:01:06;;;;;;;3.42;3.15;;;23.40;99.90;;;;;;5017770;28;21883;-72
2023/08/19 06:03:32;;;;;;;3.70;3.28;;;23.60;99.90;;;;;;5028265;28;20037;-72
2023/08/19 06:06:03;;;;;;;4.18;3.63;;;23.60;99.90;;;;;;5033923;28;20565;-72
2023/08/19 06:08:28;;;;;;;3.80;3.50;;;23.80;99.90;;;;;;5024313;28;21078;-72
2023/08/19 06:11:06;;;;;;;3.47;3.10;;;23.90;99.90;;;;;;5023897;28;20040;-72
2023/08/19 06:13:36;;;;;;;6.38;2.88;;;24.00;99.90;;;;;;5027813;28;20029;-71
2023/08/19 06:16:03;;;;;;;4.20;3.72;;;24.00;99.90;;;;;;5032170;28;20033;-66
2023/08/19 06:18:29;;;;;;;3.42;3.13;;;24.10;99.90;;;;;;5032246;28;20032;-66
2023/08/19 06:20:56;;;;;;;3.30;3.00;;;24.10;99.90;;;;;;5031804;28;20051;-66
2023/08/19 06:23:22;;;;;;;4.07;3.15;;;24.20;99.90;;;;;;5022041;28;20139;-66
2023/08/19 06:25:49;;;;;;;4.43;3.30;;;24.30;99.90;;;;;;5019591;28;20029;-66
2023/08/19 06:28:16;;;;;;;3.08;2.83;;;24.40;99.90;;;;;;5031871;28;20135;-66
2023/08/19 06:30:42;;;;;;;3.38;3.08;;;24.50;99.90;;;;;;5037307;28;20206;-66
2023/08/19 06:33:09;;;;;;;5.05;3.08;;;24.60;99.90;;;;;;5039211;28;20043;-66
2023/08/19 06:35:36;;;;;;;3.15;2.95;;;24.60;99.90;;;;;;5031360;28;20033;-66
2023/08/19 06:38:17;;;;;;;3.60;3.30;;;24.80;99.90;;;;;;5030540;28;20500;-66
2023/08/19 06:40:53;;;;;;;4.88;3.35;;;24.90;99.90;;;;;;5028003;28;20039;-66
2023/08/19 06:43:21;;;;;;;3.67;3.20;;;25.00;99.90;;;;;;5032677;28;20553;-66
2023/08/19 06:45:47;;;;;;;4.03;2.92;;;25.00;99.90;;;;;;5036525;28;20112;-66
2023/08/19 06:48:15;;;;;;;3.10;2.80;;;25.10;99.90;;;;;;5037166;28;20052;-66
2023/08/19 06:50:41;;;;;;;5.38;3.35;;;25.20;99.90;;;;;;5035945;28;20029;-66
2023/08/19 06:53:10;;;;;;;5.32;2.97;;;25.20;99.90;;;;;;5032436;28;20557;-66
2023/08/19 06:55:40;;;;;;;3.83;3.28;;;25.30;99.90;;;;;;5031271;28;20018;-66
2023/08/19 06:58:15;;;;;;;3.58;3.28;;;25.30;99.90;;;;;;5031924;28;20525;-66
2023/08/19 07:00:43;;;;;;;3.30;3.10;;;25.40;99.90;;;;;;5036237;28;20232;-66
2023/08/19 07:03:10;;;;;;;4.57;2.83;;;25.40;99.90;;;;;;5037609;28;20115;-66
2023/08/19 07:05:36;;;;;;;3.13;2.78;;;25.40;99.90;;;;;;5023300;28;20041;-66
2023/08/19 07:08:06;;;;;;;3.58;3.28;;;25.50;99.90;;;;;;5028991;28;20461;-66
2023/08/19 07:10:32;;;;;;;3.35;3.05;;;25.50;99.90;;;;;;5032140;28;20013;-66
2023/08/19 07:12:58;;;;;;;3.30;2.90;;;25.50;99.90;;;;;;5034293;28;20032;-66
2023/08/19 07:15:24;;;;;;;3.10;2.88;;;25.50;99.90;;;;;;5027904;28;20079;-66
2023/08/19 07:17:54;;;;;;;3.15;2.88;;;25.50;99.90;;;;;;5032558;28;20293;-66
2023/08/19 07:20:23;;;;;;;3.40;3.10;;;25.40;99.90;;;;;;5018840;28;20040;-66
2023/08/19 07:22:51;;;;;;;3.63;3.33;;;25.40;99.90;;;;;;5032059;28;20107;-66
2023/08/19 07:25:19;;;;;;;3.83;3.53;;;25.30;99.90;;;;;;5034354;28;20033;-66
2023/08/19 07:27:45;;;;;;;4.15;3.70;;;25.10;99.90;;;;;;5027411;28;20063;-66
2023/08/19 07:30:12;;;;;;;4.45;3.35;;;24.80;99.90;;;;;;5027953;28;20111;-66
2023/08/19 07:32:38;;;;;;;4.35;3.88;;;24.60;99.90;;;;;;5032507;28;20033;-65
2023/08/19 07:35:05;;;;;;;3.90;3.33;;;24.50;99.90;;;;;;5022522;28;20068;-66
2023/08/19 07:37:31;;;;;;;5.07;3.60;;;24.50;99.90;;;;;;5023400;28;20079;-66
2023/08/19 07:39:57;;;;;;;4.78;4.10;;;24.50;99.90;;;;;;5019790;28;20112;-66
2023/08/19 07:42:24;;;;;;;3.78;3.47;;;24.40;99.90;;;;;;5022341;28;20127;-66
2023/08/19 07:44:49;;;;;;;5.57;3.92;;;24.50;99.90;;;;;;5027739;28;20033;-66
2023/08/19 07:47:15;;;;;;;4.35;3.95;;;24.50;99.90;;;;;;5026341;28;20044;-66
2023/08/19 07:49:41;;;;;;;4.05;3.30;;;24.40;99.90;;;;;;5020357;28;20033;-65
2023/08/19 07:52:07;;;;;;;3.92;3.63;;;24.30;99.90;;;;;;5030596;28;20040;-66
2023/08/19 07:54:32;;;;;;;3.67;3.38;;;24.20;99.90;;;;;;5026988;28;20029;-65
2023/08/19 07:56:59;;;;;;;4.20;3.30;;;24.20;99.90;;;;;;5010733;28;20390;-66
2023/08/19 07:59:27;;;;;;;3.28;2.90;;;24.10;99.90;;;;;;5026979;28;20069;-66
2023/08/19 08:01:54;;;;;;;3.65;2.63;;;24.10;99.90;;;;;;5023570;28;20692;-65
2023/08/19 08:04:21;;;;;;;3.72;2.38;;;24.00;99.90;;;;;;5031614;28;20037;-62
2023/08/19 08:06:48;;;;;;;4.80;2.42;;;24.00;99.90;;;;;;5034527;28;20501;-66
2023/08/19 08:09:14;;;;;;;2.28;2.08;;;24.00;99.90;;;;;;5031487;28;20096;-66
2023/08/19 08:11:44;;;;;;;2.08;1.98;;;23.90;99.90;;;;;;5026601;28;21401;-65
2023/08/19 08:14:09;;;;;;;3.58;2.38;;;23.90;99.90;;;;;;5020056;28;20050;-65
2023/08/19 08:16:35;;;;;;;2.10;2.00;;;23.90;99.90;;;;;;5024172;28;20489;-66
2023/08/19 08:19:01;;;;;;;2.35;2.10;;;23.80;99.90;;;;;;5031205;28;20029;-65
2023/08/19 08:21:26;;;;;;;6.45;2.42;;;23.80;99.90;;;;;;5032113;28;20045;-65
2023/08/19 08:23:54;;;;;;;7.95;2.42;;;23.90;99.90;;;;;;5022458;28;20065;-65
2023/08/19 08:26:20;;;;;;;4.55;2.75;;;23.90;99.90;;;;;;5031754;28;20094;-66
2023/08/19 08:28:46;;;;;;;2.33;2.13;;;24.00;99.90;;;;;;5016945;28;20116;-65
2023/08/19 08:31:11;;;;;;;2.30;2.10;;;24.00;99.90;;;;;;5025858;28;20031;-65
2023/08/19 08:33:37;;;;;;;2.10;2.00;;;24.10;99.90;;;;;;5030439;28;20043;-65
2023/08/19 08:36:03;;;;;;;2.15;1.95;;;24.00;99.90;;;;;;5031152;28;20765;-66
2023/08/19 08:38:28;;;;;;;2.78;2.30;;;24.00;99.90;;;;;;5031379;28;20107;-66
2023/08/19 08:40:55;;;;;;;3.45;2.80;;;24.00;99.90;;;;;;5028377;28;20080;-65
2023/08/19 08:43:21;;;;;;;2.28;2.17;;;24.10;99.90;;;;;;5031113;28;20044;-66
2023/08/19 08:45:50;;;;;;;2.42;2.22;;;24.10;99.90;;;;;;5032005;28;20029;-65
2023/08/19 08:48:16;;;;;;;4.07;2.17;;;24.10;99.90;;;;;;5030473;28;20025;-65
2023/08/19 08:50:43;;;;;;;2.85;2.00;;;24.10;99.90;;;;;;5031782;28;20021;-66
2023/08/19 08:53:12;;;;;;;2.10;2.00;;;24.10;99.90;;;;;;5027500;28;20081;-65
2023/08/19 08:55:38;;;;;;;3.17;2.15;;;24.10;99.90;;;;;;5030328;28;20422;-65
2023/08/19 08:58:04;;;;;;;2.42;2.22;;;24.10;99.90;;;;;;5022926;28;20061;-65
2023/08/19 09:00:30;;;;;;;2.35;2.20;;;24.20;99.90;;;;;;5032281;28;20041;-65
2023/08/19 09:02:56;;;;;;;2.13;2.03;;;24.20;99.90;;;;;;5028519;28;20029;-65
2023/08/19 09:05:25;;;;;;;2.38;2.08;;;24.20;99.90;;;;;;5022607;28;20033;-65
2023/08/19 09:07:53;;;;;;;2.42;1.85;;;24.20;99.90;;;;;;5029495;28;20026;-65
2023/08/19 09:10:23;;;;;;;2.25;2.10;;;24.20;99.90;;;;;;5032003;28;20461;-66
2023/08/19 09:12:56;;;;;;;6.13;2.50;;;24.20;99.90;;;;;;5036434;28;20025;-65
2023/08/19 09:15:22;;;;;;;2.22;2.03;;;24.30;99.90;;;;;;5030974;28;20030;-66
2023/08/19 09:17:49;;;;;;;2.63;2.42;;;24.30;99.90;;;;;;5034417;28;20026;-66
2023/08/19 09:20:17;;;;;;;2.40;2.20;;;24.30;99.90;;;;;;5026851;28;20033;-65
2023/08/19 09:22:44;;;;;;;2.35;2.25;;;24.30;99.90;;;;;;5031184;28;20044;-66
2023/08/19 09:25:14;;;;;;;2.15;1.95;;;24.40;99.90;;;;;;5018171;28;20136;-65
2023/08/19 09:27:40;;;;;;;2.97;2.60;;;24.40;99.90;;;;;;5014629;28;20033;-65
2023/08/19 09:30:06;;;;;;;3.47;2.50;;;24.40;99.90;;;;;;5005617;28;20080;-66
2023/08/19 09:32:36;;;;;;;2.47;2.17;;;24.50;99.90;;;;;;5024466;28;20122;-66
2023/08/19 09:35:07;;;;;;;2.40;2.30;;;24.50;99.90;;;;;;5027126;28;20032;-65
2023/08/19 09:37:34;;;;;;;4.15;2.58;;;24.60;99.90;;;;;;5036449;28;20116;-66
2023/08/19 09:40:11;;;;;;;3.15;2.38;;;24.60;99.90;;;;;;5033448;28;20132;-65
2023/08/19 09:42:38;;;;;;;2.70;2.47;;;24.50;99.90;;;;;;5034495;28;20056;-66
2023/08/19 09:45:05;;;;;;;2.40;2.20;;;24.50;99.90;;;;;;5030338;28;20032;-66
2023/08/19 09:47:44;;;;;;;2.58;2.38;;;24.50;99.90;;;;;;5031295;28;20120;-66
2023/08/19 09:50:09;;;;;;;2.50;2.30;;;24.50;99.90;;;;;;5032306;28;20565;-66
2023/08/19 09:52:35;;;;;;;3.38;2.40;;;24.50;99.90;;;;;;5015110;28;20041;-66
2023/08/19 09:55:01;;;;;;;2.50;2.30;;;24.40;99.90;;;;;;5020012;28;20029;-66
2023/08/19 09:57:34;;;;;;;3.05;2.50;;;24.40;99.90;;;;;;5029134;28;20039;-66
2023/08/19 10:00:01;;;;;;;2.33;2.20;;;24.40;99.90;;;;;;5029816;28;20611;-66
2023/08/19 10:02:30;;;;;;;2.42;2.22;;;24.30;99.90;;;;;;5020020;28;20132;-66
2023/08/19 10:04:56;;;;;;;4.20;2.97;;;24.30;99.90;;;;;;5023068;28;20049;-66
2023/08/19 10:07:28;;;;;;;4.22;2.90;;;24.30;99.90;;;;;;5022215;28;20041;-66
2023/08/19 10:09:54;;;;;;;3.22;2.55;;;24.30;99.90;;;;;;5026614;28;20030;-65
2023/08/19 10:12:21;;;;;;;3.83;2.83;;;24.20;99.90;;;;;;5029095;28;20040;-65
2023/08/19 10:14:51;;;;;;;3.55;2.55;;;24.20;99.90;;;;;;5024296;28;20037;-65
2023/08/19 10:17:19;;;;;;;3.00;2.80;;;24.30;99.90;;;;;;4995952;28;20037;-65
2023/08/19 10:19:58;;;;;;;3.22;2.65;;;24.40;99.90;;;;;;5012731;28;20045;-65
2023/08/19 10:22:26;;;;;;;3.03;2.72;;;24.50;99.90;;;;;;5012487;28;20045;-66
2023/08/19 10:24:54;;;;;;;4.85;2.90;;;24.50;99.90;;;;;;5011796;28;20115;-65
2023/08/19 10:27:20;;;;;;;2.70;2.50;;;24.60;99.90;;;;;;5013096;28;20033;-66
2023/08/19 10:29:55;;;;;;;3.20;2.97;;;24.70;99.90;;;;;;5000693;28;20033;-65
2023/08/19 10:32:33;;;;;;;3.33;2.17;;;24.70;99.90;;;;;;5018255;28;20037;-65
2023/08/19 10:35:09;;;;;;;2.65;2.45;;;24.80;99.90;;;;;;5014770;28;20211;-65
2023/08/19 10:37:56;;;;;;;2.78;2.58;;;24.80;99.90;;;;;;5016525;28;20046;-66
2023/08/19 10:40:23;;;;;;;7.60;2.92;;;24.90;99.90;;;;;;5015542;28;20017;-65
2023/08/19 10:42:56;;;;;;;2.92;2.72;;;24.90;99.90;;;;;;5016320;28;20049;-65
2023/08/19 10:45:22;;;;;;;3.28;2.97;;;24.80;99.90;;;;;;5020085;28;20033;-66
2023/08/19 10:47:51;;;;;;;2.60;2.17;;;24.90;99.90;;;;;;5023009;28;20033;-66
2023/08/19 10:50:18;;;;;;;2.90;2.70;;;24.90;99.90;;;;;;5009869;28;20025;-65
2023/08/19 10:53:07;;;;;;;2.60;2.30;;;25.00;99.90;;;;;;4997320;28;20040;-65
2023/08/19 10:56:11;;;;;;;2.47;2.28;;;25.20;99.90;;;;;;5024997;28;20105;-65
2023/08/19 10:58:37;;;;;;;2.30;2.10;;;25.30;99.90;;;;;;4976185;28;20052;-65
2023/08/19 11:01:03;;;;;;;2.40;2.17;;;25.50;99.90;;;;;;5023113;28;20028;-65
2023/08/19 11:03:29;;;;;;;2.55;2.35;;;25.60;99.90;;;;;;5019303;28;20028;-65
2023/08/19 11:05:55;;;;;;;2.40;2.20;;;25.70;99.90;;;;;;5026512;28;20035;-65
2023/08/19 11:08:20;;;;;;;6.63;2.33;;;25.90;99.90;;;;;;5039292;28;20034;-65
2023/08/19 11:10:46;;;;;;;2.58;2.40;;;26.00;99.90;;;;;;5036192;28;20034;-65
2023/08/19 11:13:13;;;;;;;4.95;2.40;;;26.20;99.90;;;;;;5025067;28;20057;-65
2023/08/19 11:15:40;;;;;;;2.92;2.60;;;26.40;99.90;;;;;;5037087;28;20043;-65
2023/08/19 11:18:06;;;;;;;2.85;2.50;;;26.60;99.90;;;;;;5037893;28;20020;-65
2023/08/19 11:20:32;;;;;;;3.65;2.50;;;26.70;99.90;;;;;;5028877;28;20025;-65
2023/08/19 11:22:58;;;;;;;3.35;2.30;;;26.90;99.90;;;;;;5023451;28;20454;-65
2023/08/19 11:25:36;;;;;;;3.90;2.40;;;26.90;99.90;;;;;;5028637;28;20033;-65
2023/08/19 11:28:02;;;;;;;2.63;2.28;;;26.90;99.90;;;;;;5040407;28;20052;-65
2023/08/19 11:30:29;;;;;;;2.72;2.10;;;26.90;99.90;;;;;;5034451;28;20020;-65
2023/08/19 11:32:56;;;;;;;3.83;2.83;;;27.00;99.90;;;;;;5037985;28;20128;-65
2023/08/19 11:35:22;;;;;;;2.60;2.20;;;27.00;99.90;;;;;;5031856;28;20029;-65
2023/08/19 11:37:47;;;;;;;2.50;2.30;;;27.00;99.90;;;;;;5033611;28;20040;-65
2023/08/19 11:40:13;;;;;;;2.45;2.20;;;27.00;99.90;;;;;;5019241;28;20037;-65
2023/08/19 11:42:39;;;;;;;2.72;2.30;;;27.00;99.90;;;;;;5031175;28;20045;-65
2023/08/19 11:45:12;;;;;;;3.38;2.00;;;27.10;99.90;;;;;;5036644;28;20515;-65
2023/08/19 11:47:38;;;;;;;2.95;2.28;;;27.10;99.90;;;;;;5025676;28;20049;-65
2023/08/19 11:50:07;;;;;;;2.90;2.22;;;27.20;99.90;;;;;;5039938;28;20047;-65
2023/08/19 11:52:33;;;;;;;2.63;2.20;;;27.20;99.90;;;;;;5033606;28;20025;-65
2023/08/19 11:55:03;;;;;;;3.22;2.20;;;27.30;99.90;;;;;;5025105;28;20112;-65
2023/08/19 11:57:34;;;;;;;2.42;2.22;;;27.40;99.90;;;;;;5026343;28;20056;-66
2023/08/19 12:00:00;;;;;;;3.55;2.22;;;27.60;99.90;;;;;;5028472;28;20087;-65
2023/08/19 12:02:26;;;;;;;2.08;1.98;;;27.60;99.90;;;;;;5020416;28;20033;-65
2023/08/19 12:04:56;;;;;;;1.70;1.60;;;27.70;99.90;;;;;;5029207;28;20049;-65
2023/08/19 12:07:30;;;;;;;2.58;1.88;;;27.60;99.90;;;;;;5030885;28;20138;-65
2023/08/19 12:10:00;;;;;;;2.28;2.15;;;27.60;99.90;;;;;;5015858;28;20578;-65
2023/08/19 12:12:28;;;;;;;2.00;1.90;;;27.50;99.90;;;;;;5029830;28;20109;-65
2023/08/19 12:14:54;;;;;;;1.92;1.77;;;27.50;99.90;;;;;;5033018;28;20026;-65
2023/08/19 12:17:21;;;;;;;1.95;1.83;;;27.40;99.90;;;;;;5024481;28;20032;-65
2023/08/19 12:19:47;;;;;;;2.85;1.98;;;27.40;99.90;;;;;;5024917;28;20057;-65
2023/08/19 12:22:13;;;;;;;2.40;2.20;;;27.50;99.90;;;;;;5018442;28;20163;-65
2023/08/19 12:24:39;;;;;;;2.42;2.20;;;27.50;99.90;;;;;;5019433;28;20036;-65
2023/08/19 12:27:05;;;;;;;1.92;1.73;;;27.50;99.90;;;;;;5029194;28;20497;-65
2023/08/19 12:29:31;;;;;;;2.25;2.05;;;27.60;99.90;;;;;;5016740;28;20029;-65
2023/08/19 12:31:56;;;;;;;3.05;1.98;;;27.60;99.90;;;;;;5020654;28;20320;-65
2023/08/19 12:34:22;;;;;;;1.95;1.77;;;27.60;99.90;;;;;;5018464;28;20063;-65
2023/08/19 12:36:48;;;;;;;2.28;2.05;;;27.50;99.90;;;;;;5016108;28;21111;-65
2023/08/19 12:39:13;;;;;;;2.03;1.92;;;27.50;99.90;;;;;;5031964;28;20549;-65
2023/08/19 12:41:39;;;;;;;2.10;2.00;;;27.50;99.90;;;;;;5017048;28;20036;-65
2023/08/19 12:44:05;;;;;;;3.58;2.40;;;27.50;99.90;;;;;;5017816;28;20051;-65
2023/08/19 12:46:32;;;;;;;2.08;1.98;;;27.60;99.90;;;;;;5021070;28;20024;-65
2023/08/19 12:48:58;;;;;;;2.13;2.03;;;27.60;99.90;;;;;;5020874;28;20033;-65